Time;durP1;ratioP1;P1;durP2;ratioP2;P2;SDS_P1;SDS_P2;PMS_P1;PMS_P2;Temp;Humidity;BMP_temperature;BMP_pressure;BME280_temperature;BME280_humidity;BME280_pressure;Samples;Min_cycle;Max_cycle;Signal;HPM_P1;HPM_P2
2021/12/26 00:01:31;;;;;;;34.47;6.40;;;;;;;2.01;100.00;94501.06;6098915;23;20199;-85
2021/12/26 00:03:57;;;;;;;26.20;6.40;;;;;;;1.98;100.00;94491.91;6123475;23;20156;-85
2021/12/26 00:06:26;;;;;;;29.00;6.53;;;;;;;2.03;100.00;94499.19;6125659;23;20700;-86
2021/12/26 00:08:56;;;;;;;9.53;5.80;;;;;;;2.06;100.00;94491.28;6124905;23;20163;-85
2021/12/26 00:11:21;;;;;;;14.03;5.80;;;;;;;2.01;100.00;94490.84;6125207;23;20673;-86
2021/12/26 00:13:50;;;;;;;21.63;7.40;;;;;;;1.88;100.00;94483.31;6125550;23;20191;-86
2021/12/26 00:16:16;;;;;;;37.90;6.90;;;;;;;1.91;100.00;94488.19;6125882;23;20183;-85
2021/12/26 00:18:44;;;;;;;23.50;7.13;;;;;;;1.96;100.00;94491.22;6125851;23;20202;-86
2021/12/26 00:21:10;;;;;;;20.80;7.53;;;;;;;1.92;100.00;94495.75;6102335;23;20152;-84
2021/12/26 00:23:35;;;;;;;21.17;7.10;;;;;;;1.87;100.00;94487.63;6125297;23;20171;-85
2021/12/26 00:26:01;;;;;;;49.40;8.23;;;;;;;1.89;100.00;94485.75;6127374;23;20189;-85
2021/12/26 00:28:26;;;;;;;24.83;7.07;;;;;;;1.96;100.00;94489.47;6101666;23;20629;-84
2021/12/26 00:30:54;;;;;;;41.27;7.47;;;;;;;1.88;100.00;94489.25;6126534;23;20602;-87
2021/12/26 00:33:20;;;;;;;9.97;6.30;;;;;;;1.90;100.00;94478.88;6101072;23;20700;-85
2021/12/26 00:35:45;;;;;;;27.40;7.53;;;;;;;1.85;100.00;94486.09;6077493;23;20202;-86
2021/12/26 00:38:13;;;;;;;46.77;8.23;;;;;;;1.85;100.00;94486.09;6125957;23;20244;-86
2021/12/26 00:40:39;;;;;;;30.80;7.30;;;;;;;1.90;100.00;94489.13;6126438;23;20602;-85
2021/12/26 00:43:04;;;;;;;37.93;8.53;;;;;;;1.92;100.00;94488.06;6101004;23;20168;-86
2021/12/26 00:45:29;;;;;;;17.97;7.73;;;;;;;1.93;100.00;94489.69;6125913;23;20179;-85
2021/12/26 00:47:55;;;;;;;34.00;7.83;;;;;;;1.93;100.00;94492.25;6125390;23;20159;-85
2021/12/26 00:50:25;;;;;;;27.57;8.30;;;;;;;1.88;100.00;94484.13;6125509;23;20156;-86
2021/12/26 00:52:50;;;;;;;16.67;6.63;;;;;;;1.89;100.00;94478.06;6124987;23;20160;-86
2021/12/26 00:55:16;;;;;;;22.90;6.67;;;;;;;1.92;100.00;94477.00;6125434;23;20227;-85
2021/12/26 00:57:42;;;;;;;26.73;7.47;;;;;;;1.97;100.00;94483.41;6125132;23;20184;-86
2021/12/26 01:00:20;;;;;;;29.60;7.17;;;;;;;1.96;100.00;94478.41;6125108;23;20262;-87
2021/12/26 01:02:46;;;;;;;23.37;6.37;;;;;;;2.00;100.00;94484.91;6100245;23;20224;-84
2021/12/26 01:05:12;;;;;;;69.97;8.53;;;;;;;1.96;100.00;94483.53;6100521;23;20566;-85
2021/12/26 01:07:52;;;;;;;15.60;6.43;;;;;;;1.96;100.00;94476.66;6126382;23;20152;-86
2021/12/26 01:10:20;;;;;;;22.50;7.77;;;;;;;1.90;100.00;94468.66;6104140;23;20156;-85
2021/12/26 01:12:46;;;;;;;30.60;8.17;;;;;;;1.92;100.00;94482.13;6124438;23;20182;-86
2021/12/26 01:15:12;;;;;;;37.40;7.73;;;;;;;1.86;100.00;94480.88;6125118;23;20172;-82
2021/12/26 01:17:41;;;;;;;37.30;7.97;;;;;;;1.88;100.00;94484.13;6124972;23;20186;-85
2021/12/26 01:20:25;;;;;;;106.10;10.70;;;;;;;1.82;100.00;94476.94;6124805;23;20160;-86
2021/12/26 01:22:51;;;;;;;53.67;8.27;;;;;;;1.89;100.00;94483.19;6101207;23;20145;-84
2021/12/26 01:25:16;;;;;;;61.17;8.30;;;;;;;1.94;100.00;94482.81;6125426;23;20514;-86
2021/12/26 01:27:42;;;;;;;34.17;7.77;;;;;;;1.97;100.00;94485.97;6100616;23;20159;-83
2021/12/26 01:30:08;;;;;;;45.13;9.00;;;;;;;1.98;100.00;94492.72;6125213;23;20184;-86
2021/12/26 01:32:33;;;;;;;38.87;7.93;;;;;;;1.95;100.00;94492.16;6124060;23;20534;-85
2021/12/26 01:34:59;;;;;;;52.43;8.73;;;;;;;1.96;100.00;94492.03;6124689;23;20214;-86
2021/12/26 01:37:24;;;;;;;47.23;8.13;;;;;;;1.96;100.00;94493.78;6124834;23;20183;-85
2021/12/26 01:39:49;;;;;;;23.57;6.77;;;;;;;1.98;100.00;94492.72;6076575;23;20159;-86
2021/12/26 01:42:15;;;;;;;47.27;8.57;;;;;;;1.97;100.00;94496.22;6099457;23;20156;-86
2021/12/26 01:44:41;;;;;;;63.50;8.83;;;;;;;1.95;100.00;94498.09;6123758;23;20227;-85
2021/12/26 01:47:07;;;;;;;61.10;8.50;;;;;;;1.89;100.00;94493.44;6100674;23;20222;-85
2021/12/26 01:49:33;;;;;;;34.30;7.77;;;;;;;1.91;100.00;94486.44;6124824;23;20159;-84
2021/12/26 01:52:01;;;;;;;32.60;7.23;;;;;;;1.97;100.00;94493.66;6124450;23;20162;-84
2021/12/26 01:54:38;;;;;;;37.07;7.73;;;;;;;1.91;100.00;94485.63;6124995;23;20164;-84
2021/12/26 01:57:06;;;;;;;40.20;7.40;;;;;;;1.96;100.00;94491.22;6124314;23;20271;-85
2021/12/26 01:59:32;;;;;;;26.43;7.87;;;;;;;1.91;100.00;94485.63;6076612;23;20167;-85
2021/12/26 02:01:58;;;;;;;29.53;8.10;;;;;;;1.92;100.00;94492.38;6124349;23;20479;-86
2021/12/26 02:04:28;;;;;;;9.63;5.90;;;;;;;1.94;100.00;94490.50;6100111;23;20164;-85
2021/12/26 02:06:55;;;;;;;51.43;8.10;;;;;;;1.89;100.00;94490.88;6100814;23;20234;-85
2021/12/26 02:09:20;;;;;;;38.47;7.63;;;;;;;1.93;100.00;94494.00;6099783;23;20171;-85
2021/12/26 02:11:45;;;;;;;53.60;8.50;;;;;;;1.93;100.00;94483.75;6123768;23;20152;-85
2021/12/26 02:14:10;;;;;;;17.37;7.00;;;;;;;1.93;100.00;94487.13;6099797;23;20167;-85
2021/12/26 02:16:36;;;;;;;60.67;8.93;;;;;;;1.78;100.00;94485.78;6124123;23;20189;-86
2021/12/26 02:19:02;;;;;;;12.60;6.00;;;;;;;1.96;100.00;94484.34;6124898;23;20194;-85
2021/12/26 02:21:51;;;;;;;65.53;8.50;;;;;;;1.86;100.00;94482.63;6123784;23;20598;-85
2021/12/26 02:24:20;;;;;;;40.37;7.97;;;;;;;1.89;100.00;94484.94;6124244;23;20191;-84
2021/12/26 02:29:29;;;;;;;21.90;7.07;;;;;;;1.89;100.00;94480.63;6103589;23;20602;-83
2021/12/26 02:31:55;;;;;;;39.00;7.83;;;;;;;1.80;100.00;94478.81;6122930;23;20164;-85
2021/12/26 02:34:20;;;;;;;50.47;7.80;;;;;;;1.76;100.00;94485.09;6100035;23;20152;-85
2021/12/26 02:36:45;;;;;;;80.10;10.80;;;;;;;1.73;100.00;94487.06;6123843;23;20184;-86
2021/12/26 02:39:11;;;;;;;51.17;7.37;;;;;;;1.65;100.00;94487.66;6099600;23;20163;-85
2021/12/26 02:41:36;;;;;;;23.17;6.57;;;;;;;1.72;100.00;94486.25;6074834;23;20622;-86
2021/12/26 02:44:02;;;;;;;27.30;7.13;;;;;;;1.72;100.00;94485.47;6124058;23;20211;-85
2021/12/26 02:46:28;;;;;;;39.63;7.93;;;;;;;1.64;100.00;94488.59;6124256;23;20176;-85
2021/12/26 02:48:53;;;;;;;35.80;7.73;;;;;;;1.67;100.00;94486.63;6075823;23;20617;-85
2021/12/26 02:51:19;;;;;;;38.70;7.73;;;;;;;1.70;100.00;94488.94;6098632;23;20159;-86
2021/12/26 02:53:48;;;;;;;24.53;7.33;;;;;;;1.73;100.00;94487.88;6134953;23;20154;-84
2021/12/26 02:56:14;;;;;;;23.40;6.63;;;;;;;1.76;100.00;94484.25;6128964;23;20171;-84
2021/12/26 02:58:39;;;;;;;30.40;7.10;;;;;;;1.73;100.00;94481.97;6152545;23;20195;-83
2021/12/26 03:01:09;;;;;;;17.27;7.17;;;;;;;1.76;100.00;94481.72;6126705;23;20534;-85
2021/12/26 03:03:37;;;;;;;15.03;6.90;;;;;;;1.79;100.00;94478.94;6125192;23;20148;-85
2021/12/26 03:06:10;;;;;;;30.00;7.47;;;;;;;1.78;100.00;94475.56;6124060;23;20187;-85
2021/12/26 03:08:35;;;;;;;19.30;6.73;;;;;;;1.80;100.00;94476.25;6123896;23;20704;-86
2021/12/26 03:11:01;;;;;;;16.33;6.17;;;;;;;1.79;100.00;94474.63;6124038;23;20207;-86
2021/12/26 03:13:27;;;;;;;16.70;6.13;;;;;;;1.80;100.00;94475.44;6123604;23;20167;-85
2021/12/26 03:15:52;;;;;;;25.80;6.87;;;;;;;1.78;100.00;94484.97;6099183;23;20186;-84
2021/12/26 03:18:17;;;;;;;15.70;6.63;;;;;;;1.80;100.00;94480.56;6124093;23;20484;-86
2021/12/26 03:20:46;;;;;;;11.43;5.67;;;;;;;1.82;100.00;94484.59;6098898;23;20210;-85
2021/12/26 03:23:15;;;;;;;17.87;7.13;;;;;;;1.87;100.00;94485.06;6123481;23;20174;-86
2021/12/26 03:25:40;;;;;;;12.03;6.43;;;;;;;1.91;100.00;94486.44;6099171;23;20249;-85
2021/12/26 03:28:07;;;;;;;10.67;6.47;;;;;;;1.97;100.00;94483.41;6123323;23;20171;-87
2021/12/26 03:30:33;;;;;;;14.10;6.47;;;;;;;1.89;100.00;94485.75;6123679;23;20152;-85
2021/12/26 03:33:00;;;;;;;10.23;6.10;;;;;;;1.94;100.00;94486.22;6098725;23;20226;-86
2021/12/26 03:35:26;;;;;;;12.17;7.20;;;;;;;1.87;100.00;94477.41;6099036;23;20206;-87
2021/12/26 03:37:52;;;;;;;12.20;6.07;;;;;;;2.01;100.00;94486.53;6123328;23;20210;-86
2021/12/26 03:40:18;;;;;;;12.37;6.40;;;;;;;1.93;100.00;94489.69;6123939;23;20159;-85
2021/12/26 03:42:43;;;;;;;11.97;6.90;;;;;;;1.97;100.00;94490.28;6123094;23;20160;-85
2021/12/26 03:45:10;;;;;;;11.80;6.47;;;;;;;2.04;100.00;94486.31;6099324;23;20178;-84
2021/12/26 03:47:36;;;;;;;11.47;6.87;;;;;;;2.09;100.00;94491.03;6123498;23;20151;-85
2021/12/26 03:50:03;;;;;;;17.13;7.57;;;;;;;2.03;100.00;94483.84;6123478;23;20249;-85
2021/12/26 03:52:29;;;;;;;15.53;7.23;;;;;;;2.04;100.00;94485.50;6123224;23;20163;-85
2021/12/26 03:54:54;;;;;;;12.23;7.17;;;;;;;2.06;100.00;94486.19;6123253;23;20156;-84
2021/12/26 03:57:20;;;;;;;17.97;7.03;;;;;;;2.07;100.00;94485.22;6123775;23;20247;-86
2021/12/26 03:59:45;;;;;;;19.27;7.70;;;;;;;2.08;100.00;94489.41;6123868;23;20242;-85
2021/12/26 04:02:11;;;;;;;14.07;6.60;;;;;;;2.09;100.00;94483.34;6074668;23;20576;-86
2021/12/26 04:04:38;;;;;;;21.77;6.60;;;;;;;2.07;100.00;94487.78;6099625;23;20207;-85
2021/12/26 04:07:03;;;;;;;11.67;6.90;;;;;;;2.10;100.00;94484.97;6123396;23;20222;-85
2021/12/26 04:09:29;;;;;;;18.27;7.73;;;;;;;2.10;100.00;94490.09;6123321;23;20211;-85
2021/12/26 04:11:54;;;;;;;24.37;6.83;;;;;;;2.09;100.00;94483.34;6123170;23;20163;-84
2021/12/26 04:14:21;;;;;;;12.43;6.70;;;;;;;2.15;100.00;94485.44;6123331;23;20247;-85
2021/12/26 04:16:46;;;;;;;12.27;7.60;;;;;;;2.15;100.00;94490.56;6098622;23;20211;-86
2021/12/26 04:19:11;;;;;;;14.80;7.23;;;;;;;2.08;100.00;94489.41;6123084;23;20606;-85
2021/12/26 04:21:37;;;;;;;13.33;6.90;;;;;;;2.16;100.00;94479.38;6096887;23;20155;-85
2021/12/26 04:24:03;;;;;;;19.67;7.40;;;;;;;2.15;100.00;94485.44;6123162;23;20156;-86
2021/12/26 04:26:28;;;;;;;18.23;7.33;;;;;;;2.16;100.00;94487.06;6099048;23;20231;-86
2021/12/26 04:28:54;;;;;;;13.33;7.00;;;;;;;2.12;100.00;94483.09;6123401;23;20163;-85
2021/12/26 04:31:20;;;;;;;15.87;7.13;;;;;;;2.02;100.00;94477.91;6122653;23;20164;-86
2021/12/26 04:33:46;;;;;;;12.10;7.23;;;;;;;2.16;100.00;94485.31;6123974;23;20231;-86
2021/12/26 04:36:13;;;;;;;11.00;6.53;;;;;;;2.11;100.00;94476.34;6123088;23;20176;-86
2021/12/26 04:38:38;;;;;;;10.70;6.03;;;;;;;2.23;100.00;94481.34;6099266;23;20195;-85
2021/12/26 04:41:05;;;;;;;13.50;6.40;;;;;;;2.18;100.00;94477.50;6123250;23;20502;-84
2021/12/26 04:43:34;;;;;;;13.77;7.30;;;;;;;2.17;100.00;94475.88;6123258;23;20152;-85
2021/12/26 04:46:01;;;;;;;12.03;6.77;;;;;;;2.12;100.00;94476.25;6123529;23;20235;-84
2021/12/26 04:48:26;;;;;;;20.73;7.33;;;;;;;2.14;100.00;94486.38;6099969;23;20156;-85
2021/12/26 04:50:51;;;;;;;16.33;6.67;;;;;;;2.13;100.00;94482.19;6122884;23;20551;-86
2021/12/26 04:53:17;;;;;;;24.43;6.90;;;;;;;2.15;100.00;94475.19;6122959;23;20223;-85
2021/12/26 04:55:42;;;;;;;16.43;6.83;;;;;;;2.22;100.00;94482.28;6124954;23;20177;-84
2021/12/26 04:58:07;;;;;;;20.60;8.47;;;;;;;2.22;100.00;94484.03;6124870;23;20183;-86
2021/12/26 05:00:33;;;;;;;27.20;6.97;;;;;;;2.20;100.00;94480.75;6100904;23;20168;-86
2021/12/26 05:03:03;;;;;;;14.83;7.77;;;;;;;2.24;100.00;94482.13;6100443;23;20598;-86
2021/12/26 05:05:28;;;;;;;17.70;7.33;;;;;;;2.28;100.00;94483.50;6100560;23;20175;-85
2021/12/26 05:07:54;;;;;;;18.50;7.00;;;;;;;2.28;100.00;94478.38;6125111;23;20182;-84
2021/12/26 05:10:20;;;;;;;21.60;7.43;;;;;;;2.28;100.00;94484.31;6076627;23;20183;-86
2021/12/26 05:12:46;;;;;;;15.33;6.83;;;;;;;2.33;100.00;94478.84;6124037;23;20165;-86
2021/12/26 05:15:12;;;;;;;13.43;7.03;;;;;;;2.29;100.00;94474.88;6125207;23;20262;-84
2021/12/26 05:17:40;;;;;;;17.50;7.63;;;;;;;2.27;100.00;94474.19;6100113;23;20184;-86
2021/12/26 05:20:06;;;;;;;12.43;6.80;;;;;;;2.27;100.00;94471.63;6124980;23;20253;-84
2021/12/26 05:22:31;;;;;;;18.47;8.03;;;;;;;2.31;100.00;94473.03;6124447;23;20495;-85
2021/12/26 05:24:57;;;;;;;12.47;7.03;;;;;;;2.25;100.00;94471.78;6124888;23;20163;-85
2021/12/26 05:27:22;;;;;;;24.27;7.87;;;;;;;2.35;100.00;94469.28;6125133;23;20156;-85
2021/12/26 05:29:47;;;;;;;13.33;6.77;;;;;;;2.34;100.00;94472.78;6076461;23;20156;-85
2021/12/26 05:32:13;;;;;;;18.80;8.13;;;;;;;2.38;100.00;94474.13;6123750;23;20160;-83
2021/12/26 05:34:38;;;;;;;15.60;8.33;;;;;;;2.30;100.00;94458.59;6124659;23;20241;-86
2021/12/26 05:37:04;;;;;;;13.10;6.93;;;;;;;2.36;100.00;94470.91;6124014;23;20199;-85
2021/12/26 05:39:29;;;;;;;14.67;7.83;;;;;;;2.38;100.00;94478.44;6125944;23;20143;-84
2021/12/26 05:41:54;;;;;;;16.27;7.07;;;;;;;2.37;100.00;94475.06;6124058;23;20590;-85
2021/12/26 05:44:19;;;;;;;13.40;6.37;;;;;;;2.39;100.00;94472.41;6125052;23;20483;-85
2021/12/26 05:46:45;;;;;;;13.27;6.80;;;;;;;2.39;100.00;94477.53;6121439;23;20187;-85
2021/12/26 05:49:11;;;;;;;11.27;6.07;;;;;;;2.46;100.00;94471.78;6124011;23;20164;-85
2021/12/26 05:51:36;;;;;;;10.30;6.17;;;;;;;2.50;100.00;94473.16;6123801;23;20498;-84
2021/12/26 05:54:05;;;;;;;10.97;6.53;;;;;;;2.49;100.00;94471.53;6124675;23;20230;-84
2021/12/26 05:56:30;;;;;;;10.60;5.83;;;;;;;2.51;100.00;94468.84;6100145;23;20270;-86
2021/12/26 05:59:01;;;;;;;8.23;5.33;;;;;;;2.50;100.00;94467.22;6125350;23;20194;-86
2021/12/26 06:01:32;;;;;;;8.53;5.43;;;;;;;2.62;100.00;94468.78;6123126;23;20669;-87
2021/12/26 06:04:04;;;;;;;8.83;5.80;;;;;;;2.60;100.00;94470.66;6101147;23;20152;-85
2021/12/26 06:06:44;;;;;;;8.57;5.23;;;;;;;2.62;100.00;94473.09;6075340;23;20274;-86
2021/12/26 06:12:56;;;;;;;8.53;5.40;;;;;;;2.60;100.00;94464.72;6101690;23;20169;-87
2021/12/26 06:15:29;;;;;;;7.73;5.03;;;;;;;2.59;100.00;94457.97;6077489;23;20175;-89
2021/12/26 06:18:11;;;;;;;7.43;5.47;;;;;;;2.63;100.00;94472.16;6099159;23;20199;-88
2021/12/26 06:20:47;;;;;;;7.43;5.57;;;;;;;2.64;100.00;94469.44;6073002;23;20176;-86
2021/12/26 06:23:18;;;;;;;7.80;5.47;;;;;;;2.65;100.00;94471.09;6071279;23;20235;-87
2021/12/26 06:25:54;;;;;;;10.47;5.90;;;;;;;2.67;100.00;94470.97;6071160;23;20185;-85
2021/12/26 06:28:19;;;;;;;8.30;5.80;;;;;;;2.66;100.00;94469.34;6071316;23;20729;-87
2021/12/26 06:30:55;;;;;;;;;;;;;;;;;;;;;
2021/12/26 06:33:30;;;;;;;7.13;5.33;;;;;;;2.69;100.00;94471.66;6073225;23;20256;-86
2021/12/26 06:36:32;;;;;;;6.50;4.90;;;;;;;2.77;100.00;94476.97;6027287;23;20702;-86
2021/12/26 06:39:01;;;;;;;12.00;6.53;;;;;;;2.72;100.00;94474.75;6073145;23;20156;-87
2021/12/26 06:41:57;;;;;;;11.17;7.83;;;;;;;2.71;100.00;94474.91;6069689;23;20368;-86
2021/12/26 06:44:33;;;;;;;7.93;5.97;;;;;;;2.77;100.00;94474.41;6101023;23;20168;-86
2021/12/26 06:47:12;;;;;;;10.27;6.80;;;;;;;2.78;100.00;94481.97;6078116;23;20180;-86
2021/12/26 06:49:51;;;;;;;8.20;6.00;;;;;;;2.79;100.00;94472.53;6125653;23;20246;-87
2021/12/26 06:52:21;;;;;;;7.63;5.83;;;;;;;2.83;100.00;94481.59;6099917;23;20183;-86
2021/12/26 06:55:27;;;;;;;9.97;6.20;;;;;;;2.81;100.00;94481.69;6076917;23;20175;-87
2021/12/26 07:01:07;;;;;;;8.93;5.47;;;;;;;2.77;100.00;94484.66;6054709;23;20213;-81
2021/12/26 07:03:32;;;;;;;9.60;6.27;;;;;;;2.77;100.00;94484.66;6037181;23;20162;-80
2021/12/26 07:05:57;;;;;;;8.63;5.47;;;;;;;2.81;100.00;94491.97;6037279;23;20182;-82
2021/12/26 07:08:23;;;;;;;8.73;6.03;;;;;;;2.78;100.00;94494.78;6036044;23;20519;-79
2021/12/26 07:10:48;;;;;;;6.93;5.27;;;;;;;2.83;100.00;94494.41;6036995;23;20782;-82
2021/12/26 07:13:14;;;;;;;6.73;4.70;;;;;;;2.82;100.00;94491.00;6036195;23;20162;-81
2021/12/26 07:15:39;;;;;;;7.47;5.20;;;;;;;2.82;100.00;94496.13;6036841;23;20182;-83
2021/12/26 07:18:05;;;;;;;6.57;5.03;;;;;;;2.85;100.00;94497.66;6036708;23;20194;-78
2021/12/26 07:20:31;;;;;;;8.27;5.47;;;;;;;2.84;100.00;94496.84;6036666;23;20600;-79
2021/12/26 07:22:56;;;;;;;6.77;5.20;;;;;;;2.79;100.00;94496.41;6036302;23;20504;-81
2021/12/26 07:25:22;;;;;;;7.50;5.23;;;;;;;2.84;100.00;94498.59;6036733;23;20276;-81
2021/12/26 07:27:47;;;;;;;7.90;4.77;;;;;;;2.91;100.00;94506.56;6036721;23;20165;-86
2021/12/26 07:30:12;;;;;;;6.70;4.70;;;;;;;2.92;100.00;94508.22;6037096;23;20158;-84
2021/12/26 07:32:38;;;;;;;6.87;4.77;;;;;;;2.91;100.00;94507.38;6012323;23;20178;-86
2021/12/26 07:39:03;;;;;;;6.30;4.10;;;;;;;2.93;100.00;94510.66;6114814;23;20853;-87
2021/12/26 07:42:12;;;;;;;9.60;5.37;;;;;;;3.04;100.00;94510.59;6124876;23;20215;-87
2021/12/26 07:45:00;;;;;;;6.47;4.73;;;;;;;3.03;100.00;94511.53;6092591;23;20160;-87
2021/12/26 07:47:57;;;;;;;;;;;;;;;;;;;;;
2021/12/26 07:50:25;;;;;;;10.17;6.53;;;;;;;3.06;100.00;94511.25;6094234;23;20240;-87
2021/12/26 07:52:54;;;;;;;14.20;8.17;;;;;;;3.03;100.00;94511.53;6069404;23;20228;-85
2021/12/26 07:55:19;;;;;;;9.80;6.93;;;;;;;3.11;100.00;94514.28;6070687;23;20626;-82
2021/12/26 07:57:48;;;;;;;13.33;7.30;;;;;;;3.16;100.00;94510.50;6070173;23;20280;-85
2021/12/26 08:00:15;;;;;;;9.70;6.10;;;;;;;3.22;100.00;94515.13;6070465;23;20172;-84
2021/12/26 08:02:43;;;;;;;8.53;5.07;;;;;;;3.18;100.00;94519.72;6068378;23;20488;-85
2021/12/26 08:05:09;;;;;;;8.33;5.40;;;;;;;3.19;100.00;94520.53;6093549;23;20635;-84
2021/12/26 08:07:34;;;;;;;9.00;4.63;;;;;;;3.23;100.00;94519.31;6069226;23;20163;-84
2021/12/26 08:10:00;;;;;;;9.57;5.30;;;;;;;3.24;100.00;94515.81;6069187;23;20156;-85
2021/12/26 08:12:25;;;;;;;11.53;5.30;;;;;;;3.27;100.00;94523.22;6068857;23;20169;-84
2021/12/26 08:14:50;;;;;;;7.97;4.63;;;;;;;3.38;100.00;94525.72;6069805;23;20171;-85
2021/12/26 08:17:16;;;;;;;9.47;5.63;;;;;;;3.32;100.00;94518.53;6070181;23;20308;-84
2021/12/26 08:19:41;;;;;;;6.80;4.60;;;;;;;3.44;100.00;94514.13;6046143;23;20176;-86
2021/12/26 08:22:06;;;;;;;9.60;5.03;;;;;;;3.44;100.00;94517.50;6092878;23;20161;-85
2021/12/26 08:24:32;;;;;;;8.37;4.70;;;;;;;3.42;100.00;94516.81;6098472;23;20599;-85
2021/12/26 08:26:57;;;;;;;9.20;5.33;;;;;;;3.54;100.00;94513.22;6075219;23;20798;-85
2021/12/26 08:29:23;;;;;;;7.97;5.33;;;;;;;3.58;100.00;94509.44;6124435;23;20161;-85
2021/12/26 08:31:54;;;;;;;10.17;5.90;;;;;;;3.56;100.00;94513.91;6124986;23;20165;-84
2021/12/26 08:34:22;;;;;;;9.90;6.07;;;;;;;3.61;100.00;94514.31;6121310;23;20170;-85
2021/12/26 08:36:49;;;;;;;9.13;5.43;;;;;;;3.58;100.00;94521.47;6122723;23;20186;-84
2021/12/26 08:39:14;;;;;;;12.03;5.83;;;;;;;3.64;100.00;94518.41;6123637;23;20163;-85
2021/12/26 08:41:40;;;;;;;9.63;5.90;;;;;;;3.72;100.00;94523.69;6124616;23;20164;-85
2021/12/26 08:44:05;;;;;;;10.23;5.73;;;;;;;3.70;100.00;94528.94;6125202;23;20460;-84
2021/12/26 08:46:30;;;;;;;9.37;5.33;;;;;;;3.68;100.00;94520.56;6124866;23;20215;-84
2021/12/26 08:48:56;;;;;;;7.47;4.83;;;;;;;3.77;100.00;94529.22;6124279;23;20171;-82
2021/12/26 08:51:21;;;;;;;10.70;5.60;;;;;;;3.84;100.00;94529.53;6099996;23;20167;-83
2021/12/26 08:53:46;;;;;;;10.73;5.33;;;;;;;3.81;100.00;94535.75;6125195;23;20161;-84
2021/12/26 08:56:12;;;;;;;9.00;5.97;;;;;;;3.81;100.00;94530.63;6124736;23;20188;-83
2021/12/26 08:58:37;;;;;;;11.50;7.03;;;;;;;3.94;100.00;94535.50;6124401;23;20175;-84
2021/12/26 09:01:02;;;;;;;18.23;13.90;;;;;;;3.98;100.00;94534.31;6123107;23;20694;-84
2021/12/26 09:03:28;;;;;;;13.83;9.50;;;;;;;4.04;100.00;94536.31;6119478;23;20533;-84
2021/12/26 09:05:53;;;;;;;11.27;6.70;;;;;;;4.00;100.00;94534.97;6095126;23;20193;-84
2021/12/26 09:08:19;;;;;;;17.83;7.20;;;;;;;3.93;100.00;94541.56;6119789;23;20181;-84
2021/12/26 09:10:45;;;;;;;12.77;6.03;;;;;;;3.99;100.00;94548.75;6120351;23;20602;-85
2021/12/26 09:13:10;;;;;;;11.80;6.90;;;;;;;3.85;100.00;94544.00;6120115;23;20244;-85
2021/12/26 09:15:36;;;;;;;9.10;5.97;;;;;;;3.91;100.00;94533.19;6095196;23;20188;-86
2021/12/26 09:18:02;;;;;;;9.03;6.03;;;;;;;3.96;100.00;94547.25;6120169;23;20184;-85
2021/12/26 09:20:27;;;;;;;16.50;10.87;;;;;;;4.11;100.00;94549.47;6121059;23;20163;-85
2021/12/26 09:22:53;;;;;;;11.13;8.00;;;;;;;4.24;100.00;94544.88;6094646;23;20190;-84
2021/12/26 09:25:18;;;;;;;11.57;7.97;;;;;;;4.29;100.00;94545.28;6120663;23;20181;-84
2021/12/26 09:27:43;;;;;;;12.50;8.43;;;;;;;4.37;100.00;94553.16;6120428;23;20169;-85
2021/12/26 09:30:11;;;;;;;12.63;7.57;;;;;;;4.42;100.00;94553.56;6109549;23;20145;-85
2021/12/26 09:32:37;;;;;;;12.37;7.50;;;;;;;4.45;100.00;94553.28;6145341;23;20238;-85
2021/12/26 09:35:03;;;;;;;10.27;7.00;;;;;;;4.51;100.00;94554.53;6114654;23;20629;-81
2021/12/26 09:37:28;;;;;;;10.63;7.57;;;;;;;4.54;100.00;94555.03;6122572;23;20169;-82
2021/12/26 09:39:54;;;;;;;9.87;7.30;;;;;;;4.70;100.00;94559.66;6122132;23;20161;-81
2021/12/26 09:42:20;;;;;;;12.27;10.53;;;;;;;4.92;100.00;94561.13;6096632;23;20226;-82
2021/12/26 09:44:46;;;;;;;9.83;7.40;;;;;;;4.88;100.00;94559.78;6122374;23;20185;-82
2021/12/26 09:47:13;;;;;;;9.70;7.53;;;;;;;4.88;100.00;94558.97;6122933;23;20251;-84
2021/12/26 09:49:38;;;;;;;9.83;7.33;;;;;;;5.02;100.00;94561.91;6121241;23;20160;-83
2021/12/26 09:52:05;;;;;;;7.77;6.00;;;;;;;5.15;100.00;94556.50;6120982;23;20214;-81
2021/12/26 09:54:30;;;;;;;9.77;7.77;;;;;;;5.21;100.00;94561.09;6120424;23;20500;-82
2021/12/26 09:56:55;;;;;;;8.93;6.70;;;;;;;5.44;100.00;94558.97;6119320;23;20176;-82
2021/12/26 09:59:22;;;;;;;6.17;5.17;;;;;;;5.46;100.00;94553.69;6118401;23;20192;-83
2021/12/26 10:01:53;;;;;;;8.10;5.47;;;;;;;5.72;100.00;94554.66;6118575;23;20179;-81
2021/12/26 10:04:26;;;;;;;6.70;5.30;;;;;;;5.75;100.00;94548.44;6120566;23;20161;-80
2021/12/26 10:07:00;;;;;;;7.43;4.87;;;;;;;5.73;100.00;94545.97;6121871;23;20180;-83
2021/12/26 10:09:27;;;;;;;7.93;5.80;;;;;;;5.84;100.00;94547.59;6116490;23;20163;-83
2021/12/26 10:11:56;;;;;;;9.60;6.43;;;;;;;5.76;100.00;94545.72;6068810;23;20168;-81
2021/12/26 10:14:30;;;;;;;9.77;6.07;;;;;;;5.80;100.00;94536.72;6096140;23;20160;-85
2021/12/26 10:17:02;;;;;;;10.20;6.30;;;;;;;5.83;100.00;94530.47;6119303;23;20215;-82
2021/12/26 10:19:44;;;;;;;10.47;7.07;;;;;;;5.84;100.00;94532.13;6121094;23;20169;-82
2021/12/26 10:22:11;;;;;;;8.17;5.97;;;;;;;5.90;100.00;94527.22;6097407;23;20156;-82
2021/12/26 10:24:39;;;;;;;9.13;6.87;;;;;;;5.99;100.00;94533.28;6121285;23;20219;-83
2021/12/26 10:27:10;;;;;;;8.63;6.00;;;;;;;6.26;100.00;94527.28;6120284;23;20172;-83
2021/12/26 10:29:40;;;;;;;10.40;6.63;;;;;;;6.25;100.00;94523.06;6095562;23;20160;-82
2021/12/26 10:32:13;;;;;;;7.23;5.37;;;;;;;6.28;100.00;94525.38;6119249;23;20479;-82
2021/12/26 10:34:43;;;;;;;6.87;4.80;;;;;;;6.24;100.00;94524.03;6096212;23;20216;-82
2021/12/26 10:37:13;;;;;;;6.67;4.97;;;;;;;6.35;100.00;94518.66;6119062;23;20267;-82
2021/12/26 10:39:44;;;;;;;5.13;4.43;;;;;;;6.21;100.00;94519.19;6119391;23;20192;-81
2021/12/26 10:42:13;;;;;;;5.87;4.23;;;;;;;6.39;100.00;94512.25;6093740;23;20483;-84
2021/12/26 10:45:09;;;;;;;5.40;4.73;;;;;;;6.52;100.00;94517.03;6118888;23;20164;-83
2021/12/26 10:47:37;;;;;;;6.43;5.07;;;;;;;6.54;100.00;94515.16;6092993;23;20157;-84
2021/12/26 10:50:14;;;;;;;4.73;4.20;;;;;;;6.68;100.00;94518.97;6095017;23;20165;-82
2021/12/26 10:52:58;;;;;;;5.90;4.37;;;;;;;6.62;100.00;94514.38;6118320;23;20152;-81
2021/12/26 10:55:41;;;;;;;5.70;4.73;;;;;;;6.58;100.00;94523.38;6119364;23;20183;-83
2021/12/26 10:58:13;;;;;;;6.23;4.97;;;;;;;6.53;100.00;94516.88;6118792;23;20224;-82
2021/12/26 11:00:43;;;;;;;5.07;3.97;;;;;;;6.51;100.00;94510.25;6118979;23;20168;-82
2021/12/26 11:03:22;;;;;;;6.33;4.80;;;;;;;6.63;100.00;94508.28;6118315;23;20149;-82
2021/12/26 11:05:49;;;;;;;8.13;5.17;;;;;;;6.47;100.00;94506.38;6094290;23;20215;-83
2021/12/26 11:08:30;;;;;;;5.70;4.43;;;;;;;6.61;100.00;94511.00;6094706;23;20228;-82
2021/12/26 11:10:56;;;;;;;6.17;4.87;;;;;;;6.67;100.00;94505.25;6117977;23;20208;-81
2021/12/26 11:13:26;;;;;;;7.30;5.00;;;;;;;6.62;99.86;94504.06;6115849;23;20171;-81
2021/12/26 11:15:57;;;;;;;6.47;5.23;;;;;;;6.72;99.54;94503.03;6118200;23;20186;-83
2021/12/26 11:18:23;;;;;;;5.57;4.37;;;;;;;6.66;100.00;94505.41;6093606;23;20240;-82
2021/12/26 11:20:57;;;;;;;10.50;7.60;;;;;;;6.52;100.00;94496.41;6093987;23;20229;-82
2021/12/26 11:23:34;;;;;;;11.93;9.03;;;;;;;6.33;100.00;94497.38;6094733;23;20164;-82
2021/12/26 11:26:03;;;;;;;16.03;9.80;;;;;;;6.25;100.00;94492.13;6121335;23;20179;-83
2021/12/26 11:28:31;;;;;;;27.10;11.00;;;;;;;6.20;100.00;94497.75;6121570;23;20207;-86
2021/12/26 11:31:12;;;;;;;25.83;11.53;;;;;;;6.01;100.00;94489.31;6074102;23;20161;-82
2021/12/26 11:33:38;;;;;;;66.87;11.63;;;;;;;5.82;100.00;94498.75;6122082;23;20180;-82
2021/12/26 11:36:06;;;;;;;80.07;17.20;;;;;;;5.86;100.00;94502.69;6097576;23;20239;-83
2021/12/26 11:38:32;;;;;;;23.43;11.07;;;;;;;5.86;100.00;94502.69;6097675;23;20178;-83
2021/12/26 11:41:00;;;;;;;159.33;16.70;;;;;;;5.76;100.00;94499.34;6120778;23;21105;-82
2021/12/26 11:43:52;;;;;;;122.77;14.97;;;;;;;5.71;100.00;94501.53;6123124;23;20208;-84
2021/12/26 11:46:36;;;;;;;130.13;14.93;;;;;;;5.72;100.00;94503.16;6123845;23;20172;-82
2021/12/26 11:49:21;;;;;;;305.77;23.40;;;;;;;5.50;100.00;94503.53;6101796;23;20157;-82